Bellchester, Minnesota
Current Conditions -  °F | °C
As of 10:14 AM on Sunday 23 Nov 2014 (Local Time) from KSYN Reporting Station
Haze Haze  
Wind Chill: 51°   Ceiling: 500
Heat Index: 51°   Visibility: 3mi
Dew Point: 49°   Wind: 6mph
Humidity: 92%   Direction: 200°SSW
Pressure: 29.43"   Gusts: NA
Location:  44.4081°N, 92.5457°W
Report Text: KSYN 231614Z AUTO 20005KT 3SM BR OVC005 11/09 A2943 RMK AO2 T01060093
Loading
Personal Weather Stations






























Interactive Weather Map New forecast layout! Learn more

10-Day Weather Forecast

Advertisements
Track Severe Weather on mobile